Time,TemperatureF,DewpointF,PressureIn,WindDirection,WindDirectionDegrees,WindSpeedMPH,WindSpeedGustMPH,Humidity,HourlyPrecipIn,Conditions,Clouds,dailyrainin,SoftwareType,DateUTC
2013-11-26 00:03:00,23.4,21.2,30.12,WNW,294,2.0,2.0,91,0.00,,,0.00,Wunderground v.1.15,2013-11-26 06:03:00,
2013-11-26 00:08:00,23.4,21.2,30.12,WNW,294,0.0,2.0,91,0.00,,,0.00,Wunderground v.1.15,2013-11-26 06:08:00,
2013-11-26 00:13:00,23.1,20.6,30.12,WNW,294,0.0,1.0,90,0.00,,,0.00,Wunderground v.1.15,2013-11-26 06:13:00,
2013-11-26 00:19:00,23.0,20.8,30.12,WNW,294,1.0,1.0,91,0.00,,,0.00,Wunderground v.1.15,2013-11-26 06:19:00,
2013-11-26 00:24:00,22.9,20.7,30.12,WNW,284,0.0,1.0,91,0.00,,,0.00,Wunderground v.1.15,2013-11-26 06:24:00,
2013-11-26 00:29:00,22.6,20.1,30.12,WNW,284,0.0,1.0,90,0.00,,,0.00,Wunderground v.1.15,2013-11-26 06:29:00,
2013-11-26 00:34:00,22.2,19.7,30.12,West,270,1.0,3.0,90,0.00,,,0.00,Wunderground v.1.15,2013-11-26 06:34:00,
2013-11-26 00:40:00,21.8,19.6,30.12,West,270,0.0,3.0,91,0.00,,,0.00,Wunderground v.1.15,2013-11-26 06:40:00,
2013-11-26 00:45:00,21.6,19.4,30.12,WNW,284,0.0,1.0,91,0.00,,,0.00,Wunderground v.1.15,2013-11-26 06:45:00,
2013-11-26 00:50:00,21.6,19.6,30.12,West,263,3.0,3.0,92,0.00,,,0.00,Wunderground v.1.15,2013-11-26 06:50:00,
2013-11-26 00:56:00,22.2,20.5,30.12,West,259,2.0,3.0,93,0.00,,,0.00,Wunderground v.1.15,2013-11-26 06:56:00,
2013-11-26 01:02:00,22.2,20.2,30.12,WSW,254,2.0,2.0,92,0.00,,,0.00,Wunderground v.1.15,2013-11-26 07:02:00,
2013-11-26 01:08:00,22.1,20.1,30.12,WSW,251,2.0,4.0,92,0.00,,,0.00,Wunderground v.1.15,2013-11-26 07:08:00,
2013-11-26 01:13:00,21.9,19.9,30.12,WSW,254,3.0,3.0,92,0.00,,,0.00,Wunderground v.1.15,2013-11-26 07:13:00,
2013-11-26 01:19:00,21.8,19.8,30.12,West,259,3.0,3.0,92,0.00,,,0.00,Wunderground v.1.15,2013-11-26 07:19:00,
2013-11-26 01:24:00,21.8,19.8,30.12,WSW,254,2.0,3.0,92,0.00,,,0.00,Wunderground v.1.15,2013-11-26 07:24:00,
2013-11-26 01:30:00,21.8,19.8,30.12,West,262,4.0,4.0,92,0.00,,,0.00,Wunderground v.1.15,2013-11-26 07:30:00,
2013-11-26 01:35:00,21.8,19.8,30.13,West,259,3.0,4.0,92,0.00,,,0.00,Wunderground v.1.15,2013-11-26 07:35:00,
2013-11-26 01:40:00,21.7,19.7,30.13,West,269,2.0,4.0,92,0.00,,,0.00,Wunderground v.1.15,2013-11-26 07:40:00,
2013-11-26 01:45:00,21.5,19.5,30.13,West,263,2.0,3.0,92,0.00,,,0.00,Wunderground v.1.15,2013-11-26 07:45:00,
2013-11-26 01:53:00,20.6,18.1,30.13,WSW,241,2.0,2.0,90,0.00,,,0.00,Wunderground v.1.15,2013-11-26 07:53:00,
2013-11-26 01:58:00,20.1,17.9,30.13,WSW,250,3.0,3.0,91,0.00,,,0.00,Wunderground v.1.15,2013-11-26 07:58:00,
2013-11-26 02:03:00,20.5,18.8,30.13,West,261,2.0,3.0,93,0.00,,,0.00,Wunderground v.1.15,2013-11-26 08:03:00,
2013-11-26 02:08:00,20.6,18.6,30.13,WSW,258,2.0,4.0,92,0.00,,,0.00,Wunderground v.1.15,2013-11-26 08:08:00,
2013-11-26 02:13:00,20.7,18.7,30.13,WSW,257,4.0,4.0,92,0.00,,,0.00,Wunderground v.1.15,2013-11-26 08:13:00,
2013-11-26 02:18:00,20.9,18.9,30.13,WNW,292,3.0,4.0,92,0.00,,,0.00,Wunderground v.1.15,2013-11-26 08:18:00,
2013-11-26 02:23:00,21.1,19.1,30.13,West,275,3.0,4.0,92,0.00,,,0.00,Wunderground v.1.15,2013-11-26 08:23:00,
2013-11-26 02:28:00,21.4,19.7,30.13,West,279,4.0,6.0,93,0.00,,,0.00,Wunderground v.1.15,2013-11-26 08:28:00,
2013-11-26 02:33:00,22.2,20.5,30.13,WNW,296,3.0,4.0,93,0.00,,,0.00,Wunderground v.1.15,2013-11-26 08:33:00,
2013-11-26 02:38:00,22.5,20.5,30.13,WNW,295,4.0,4.0,92,0.00,,,0.00,Wunderground v.1.15,2013-11-26 08:38:00,
2013-11-26 02:43:00,22.7,20.7,30.13,WNW,286,4.0,6.0,92,0.00,,,0.00,Wunderground v.1.15,2013-11-26 08:43:00,
2013-11-26 02:48:00,23.3,21.3,30.13,West,265,5.0,7.0,92,0.00,,,0.00,Wunderground v.1.15,2013-11-26 08:48:00,
2013-11-26 02:53:00,23.7,21.7,30.13,West,266,6.0,6.0,92,0.00,,,0.00,Wunderground v.1.15,2013-11-26 08:53:00,
2013-11-26 02:58:00,24.1,21.9,30.13,West,271,3.0,6.0,91,0.00,,,0.00,Wunderground v.1.15,2013-11-26 08:58:00,
2013-11-26 03:03:00,24.4,22.2,30.13,WNW,288,4.0,4.0,91,0.00,,,0.00,Wunderground v.1.15,2013-11-26 09:03:00,
2013-11-26 03:08:00,24.7,22.4,30.13,WNW,288,3.0,6.0,91,0.00,,,0.00,Wunderground v.1.15,2013-11-26 09:08:00,
2013-11-26 03:13:00,24.7,22.2,30.13,WNW,290,4.0,4.0,90,0.00,,,0.00,Wunderground v.1.15,2013-11-26 09:13:00,
2013-11-26 03:18:00,24.8,22.5,30.13,WNW,300,4.0,5.0,91,0.00,,,0.00,Wunderground v.1.15,2013-11-26 09:18:00,
2013-11-26 03:23:00,25.2,23.2,30.13,WNW,300,5.0,6.0,92,0.00,,,0.00,Wunderground v.1.15,2013-11-26 09:23:00,
2013-11-26 03:28:00,25.8,23.8,30.12,WNW,300,5.0,7.0,92,0.00,,,0.00,Wunderground v.1.15,2013-11-26 09:28:00,
2013-11-26 03:33:00,26.3,24.0,30.12,WNW,303,5.0,7.0,91,0.00,,,0.00,Wunderground v.1.15,2013-11-26 09:33:00,
2013-11-26 03:38:00,26.8,24.5,30.12,WNW,296,7.0,8.0,91,0.00,,,0.00,Wunderground v.1.15,2013-11-26 09:38:00,
2013-11-26 03:43:00,27.4,25.1,30.12,WNW,300,7.0,8.0,91,0.00,,,0.00,Wunderground v.1.15,2013-11-26 09:43:00,
2013-11-26 03:48:00,27.7,25.2,30.12,NW,310,9.0,10.0,90,0.00,,,0.00,Wunderground v.1.15,2013-11-26 09:48:00,
2013-11-26 03:53:00,28.0,25.2,30.12,WNW,290,7.0,8.0,89,0.00,,,0.00,Wunderground v.1.15,2013-11-26 09:53:00,
2013-11-26 03:58:00,28.2,25.4,30.12,NW,323,8.0,8.0,89,0.00,,,0.00,Wunderground v.1.15,2013-11-26 09:58:00,
2013-11-26 04:04:00,28.4,25.6,30.11,NW,319,6.0,6.0,89,0.00,,,0.00,Wunderground v.1.15,2013-11-26 10:04:00,
2013-11-26 04:09:00,28.4,25.3,30.11,NW,316,8.0,8.0,88,0.00,,,0.00,Wunderground v.1.15,2013-11-26 10:09:00,
2013-11-26 04:14:00,28.4,25.3,30.11,NW,313,8.0,9.0,88,0.00,,,0.00,Wunderground v.1.15,2013-11-26 10:14:00,
2013-11-26 04:19:00,28.4,25.3,30.11,NW,313,6.0,10.0,88,0.00,,,0.00,Wunderground v.1.15,2013-11-26 10:19:00,
2013-11-26 04:24:00,28.3,25.2,30.11,NW,311,5.0,8.0,88,0.00,,,0.00,Wunderground v.1.15,2013-11-26 10:24:00,
2013-11-26 04:29:00,28.3,25.5,30.11,NW,311,5.0,8.0,89,0.00,,,0.00,Wunderground v.1.15,2013-11-26 10:29:00,
2013-11-26 04:34:00,28.3,25.5,30.11,NW,317,7.0,9.0,89,0.00,,,0.00,Wunderground v.1.15,2013-11-26 10:34:00,
2013-11-26 04:39:00,28.4,25.6,30.11,NW,310,7.0,9.0,89,0.00,,,0.00,Wunderground v.1.15,2013-11-26 10:39:00,
2013-11-26 04:44:00,28.4,25.6,30.11,NW,326,7.0,9.0,89,0.00,,,0.00,Wunderground v.1.15,2013-11-26 10:44:00,
2013-11-26 04:49:00,28.5,25.7,30.11,WNW,298,8.0,10.0,89,0.00,,,0.00,Wunderground v.1.15,2013-11-26 10:49:00,
2013-11-26 04:54:00,28.5,25.7,30.11,NW,314,7.0,9.0,89,0.00,,,0.00,Wunderground v.1.15,2013-11-26 10:54:00,
2013-11-26 04:59:00,28.7,25.9,30.12,NW,311,8.0,11.0,89,0.00,,,0.00,Wunderground v.1.15,2013-11-26 10:59:00,
2013-11-26 05:04:00,28.8,26.0,30.12,WNW,297,9.0,9.0,89,0.00,,,0.00,Wunderground v.1.15,2013-11-26 11:04:00,
2013-11-26 05:09:00,29.0,25.9,30.12,NW,313,8.0,10.0,88,0.00,,,0.00,Wunderground v.1.15,2013-11-26 11:09:00,
2013-11-26 05:14:00,29.4,26.3,30.12,NW,305,10.0,12.0,88,0.00,,,0.00,Wunderground v.1.15,2013-11-26 11:14:00,
2013-11-26 05:19:00,29.6,26.2,30.12,NW,311,8.0,13.0,87,0.00,,,0.00,Wunderground v.1.15,2013-11-26 11:19:00,
2013-11-26 05:24:00,29.6,26.2,30.12,WNW,299,10.0,11.0,87,0.00,,,0.00,Wunderground v.1.15,2013-11-26 11:24:00,
2013-11-26 05:29:00,29.7,26.3,30.12,WNW,302,10.0,11.0,87,0.00,,,0.00,Wunderground v.1.15,2013-11-26 11:29:00,
2013-11-26 05:34:00,29.7,26.3,30.12,NW,323,10.0,12.0,87,0.00,,,0.00,Wunderground v.1.15,2013-11-26 11:34:00,
2013-11-26 05:39:00,29.8,26.1,30.12,NW,309,8.0,12.0,86,0.00,,,0.00,Wunderground v.1.15,2013-11-26 11:39:00,
2013-11-26 05:44:00,29.9,25.9,30.13,NW,305,8.0,11.0,85,0.00,,,0.00,Wunderground v.1.15,2013-11-26 11:44:00,
2013-11-26 05:49:00,29.9,25.9,30.13,WNW,303,7.0,11.0,85,0.00,,,0.00,Wunderground v.1.15,2013-11-26 11:49:00,
2013-11-26 05:54:00,29.9,25.9,30.13,WNW,293,9.0,11.0,85,0.00,,,0.00,Wunderground v.1.15,2013-11-26 11:54:00,
2013-11-26 05:59:00,30.0,26.0,30.13,WNW,291,8.0,13.0,85,0.00,,,0.00,Wunderground v.1.15,2013-11-26 11:59:00,
2013-11-26 06:04:00,30.0,26.0,30.13,WNW,298,8.0,11.0,85,0.00,,,0.00,Wunderground v.1.15,2013-11-26 12:04:00,
2013-11-26 06:09:00,30.0,26.0,30.14,NW,311,10.0,13.0,85,0.00,,,0.00,Wunderground v.1.15,2013-11-26 12:09:00,
2013-11-26 06:14:00,30.0,26.0,30.13,WNW,303,11.0,12.0,85,0.00,,,0.00,Wunderground v.1.15,2013-11-26 12:14:00,
2013-11-26 06:19:00,30.0,25.8,30.14,NW,306,13.0,14.0,84,0.00,,,0.00,Wunderground v.1.15,2013-11-26 12:19:00,
2013-11-26 06:24:00,30.1,25.8,30.14,WNW,292,11.0,13.0,84,0.00,,,0.00,Wunderground v.1.15,2013-11-26 12:24:00,
2013-11-26 06:29:00,30.0,25.8,30.14,NW,312,6.0,13.0,84,0.00,,,0.00,Wunderground v.1.15,2013-11-26 12:29:00,
2013-11-26 06:34:00,29.9,25.7,30.14,NW,308,12.0,12.0,84,0.00,,,0.00,Wunderground v.1.15,2013-11-26 12:34:00,
2013-11-26 06:39:00,29.8,25.6,30.14,WNW,301,13.0,16.0,84,0.00,,,0.00,Wunderground v.1.15,2013-11-26 12:39:00,
2013-11-26 06:44:00,29.8,25.6,30.14,WNW,302,13.0,13.0,84,0.00,,,0.00,Wunderground v.1.15,2013-11-26 12:44:00,
2013-11-26 06:49:00,29.7,25.5,30.15,NW,311,11.0,15.0,84,0.00,,,0.00,Wunderground v.1.15,2013-11-26 12:49:00,
2013-11-26 06:55:00,29.7,25.5,30.15,NW,304,14.0,16.0,84,0.00,,,0.00,Wunderground v.1.15,2013-11-26 12:55:00,
2013-11-26 07:00:00,29.6,25.6,30.15,NW,306,9.0,13.0,85,0.00,,,0.00,Wunderground v.1.15,2013-11-26 13:00:00,
2013-11-26 07:05:00,29.5,25.5,30.15,NW,311,16.0,18.0,85,0.00,,,0.00,Wunderground v.1.15,2013-11-26 13:05:00,
2013-11-26 07:10:00,29.4,25.4,30.15,NW,315,17.0,18.0,85,0.00,,,0.00,Wunderground v.1.15,2013-11-26 13:10:00,
2013-11-26 07:15:00,29.3,25.4,30.15,NNW,329,18.0,21.0,85,0.00,,,0.00,Wunderground v.1.15,2013-11-26 13:15:00,
2013-11-26 07:20:00,29.2,25.0,30.15,NNW,333,13.0,22.0,84,0.00,,,0.00,Wunderground v.1.15,2013-11-26 13:20:00,
2013-11-26 07:25:00,29.0,24.8,30.15,NW,319,15.0,19.0,84,0.00,,,0.00,Wunderground v.1.15,2013-11-26 13:25:00,
2013-11-26 07:30:00,28.9,24.7,30.15,NNW,331,17.0,19.0,84,0.00,,,0.00,Wunderground v.1.15,2013-11-26 13:30:00,
2013-11-26 07:35:00,28.7,24.5,30.15,NW,317,15.0,17.0,84,0.00,,,0.00,Wunderground v.1.15,2013-11-26 13:35:00,
2013-11-26 07:40:00,28.6,24.4,30.15,NW,321,14.0,19.0,84,0.00,,,0.00,Wunderground v.1.15,2013-11-26 13:40:00,
2013-11-26 07:45:00,28.4,24.2,30.16,NW,322,16.0,20.0,84,0.00,,,0.00,Wunderground v.1.15,2013-11-26 13:45:00,
2013-11-26 07:50:00,28.2,24.0,30.16,NW,324,13.0,20.0,84,0.00,,,0.00,Wunderground v.1.15,2013-11-26 13:50:00,
2013-11-26 07:55:00,28.1,23.9,30.16,NW,323,16.0,22.0,84,0.00,,,0.00,Wunderground v.1.15,2013-11-26 13:55:00,
2013-11-26 08:00:00,27.9,23.7,30.16,NW,318,13.0,18.0,84,0.00,,,0.00,Wunderground v.1.15,2013-11-26 14:00:00,
2013-11-26 08:05:00,27.8,23.3,30.16,NNW,330,17.0,22.0,83,0.00,,,0.00,Wunderground v.1.15,2013-11-26 14:05:00,
2013-11-26 08:10:00,27.8,23.3,30.17,NW,315,15.0,17.0,83,0.00,,,0.00,Wunderground v.1.15,2013-11-26 14:10:00,
2013-11-26 08:15:00,27.7,22.9,30.17,NW,317,16.0,18.0,82,0.00,,,0.00,Wunderground v.1.15,2013-11-26 14:15:00,
2013-11-26 08:20:00,27.6,23.1,30.17,NW,322,12.0,19.0,83,0.00,,,0.00,Wunderground v.1.15,2013-11-26 14:20:00,
2013-11-26 08:25:00,27.6,23.1,30.17,NW,312,14.0,19.0,83,0.00,,,0.00,Wunderground v.1.15,2013-11-26 14:25:00,
2013-11-26 08:30:00,27.6,23.1,30.17,NW,316,16.0,20.0,83,0.00,,,0.00,Wunderground v.1.15,2013-11-26 14:30:00,
2013-11-26 08:35:00,27.6,23.1,30.17,NW,322,17.0,19.0,83,0.00,,,0.00,Wunderground v.1.15,2013-11-26 14:35:00,
2013-11-26 08:40:00,27.6,23.1,30.17,NNW,331,14.0,21.0,83,0.00,,,0.00,Wunderground v.1.15,2013-11-26 14:40:00,
2013-11-26 08:46:00,27.7,23.2,30.17,NW,323,14.0,19.0,83,0.00,,,0.00,Wunderground v.1.15,2013-11-26 14:46:00,
2013-11-26 08:52:00,27.8,23.6,30.17,NNW,333,13.0,15.0,84,0.00,,,0.00,Wunderground v.1.15,2013-11-26 14:52:00,
2013-11-26 08:57:00,27.8,23.3,30.17,NNW,327,16.0,19.0,83,0.00,,,0.00,Wunderground v.1.15,2013-11-26 14:57:00,
2013-11-26 09:02:00,27.8,23.3,30.17,NW,315,13.0,13.0,83,0.00,,,0.00,Wunderground v.1.15,2013-11-26 15:02:00,
2013-11-26 09:07:00,27.8,23.0,30.17,NNW,339,16.0,21.0,82,0.00,,,0.00,Wunderground v.1.15,2013-11-26 15:07:00,
2013-11-26 09:12:00,27.8,23.0,30.18,NNW,328,16.0,18.0,82,0.00,,,0.00,Wunderground v.1.15,2013-11-26 15:12:00,
2013-11-26 09:17:00,27.8,23.0,30.18,NW,311,20.0,25.0,82,0.00,,,0.00,Wunderground v.1.15,2013-11-26 15:17:00,
2013-11-26 09:22:00,27.7,22.9,30.18,NNW,328,17.0,18.0,82,0.00,,,0.00,Wunderground v.1.15,2013-11-26 15:22:00,
2013-11-26 09:27:00,27.5,22.4,30.18,NW,315,16.0,23.0,81,0.00,,,0.00,Wunderground v.1.15,2013-11-26 15:27:00,
2013-11-26 09:32:00,27.1,21.2,30.19,NW,318,24.0,24.0,78,0.00,,,0.00,Wunderground v.1.15,2013-11-26 15:32:00,
2013-11-26 09:38:00,26.8,20.6,30.19,NW,326,17.0,27.0,77,0.00,,,0.00,Wunderground v.1.15,2013-11-26 15:38:00,
2013-11-26 09:43:00,26.6,20.7,30.19,NNW,328,24.0,27.0,78,0.00,,,0.00,Wunderground v.1.15,2013-11-26 15:43:00,
2013-11-26 09:48:00,26.2,20.0,30.20,NNW,334,20.0,27.0,77,0.00,,,0.00,Wunderground v.1.15,2013-11-26 15:48:00,
2013-11-26 09:53:00,25.8,19.3,30.20,NNW,331,19.0,21.0,76,0.00,,,0.00,Wunderground v.1.15,2013-11-26 15:53:00,
2013-11-26 09:58:00,25.4,19.2,30.20,NNW,330,23.0,25.0,77,0.00,,,0.00,Wunderground v.1.15,2013-11-26 15:58:00,
2013-11-26 10:03:00,25.2,19.0,30.20,NNW,333,23.0,23.0,77,0.00,,,0.00,Wunderground v.1.15,2013-11-26 16:03:00,
2013-11-26 10:08:00,25.5,19.6,30.20,NNW,331,19.0,23.0,78,0.00,,,0.00,Wunderground v.1.15,2013-11-26 16:08:00,
2013-11-26 10:13:00,26.6,20.7,30.20,NW,324,15.0,22.0,78,0.00,,,0.00,Wunderground v.1.15,2013-11-26 16:13:00,
2013-11-26 10:18:00,26.9,20.7,30.20,NNW,336,16.0,22.0,77,0.00,,,0.00,Wunderground v.1.15,2013-11-26 16:18:00,
2013-11-26 10:23:00,26.9,20.7,30.20,NNW,348,21.0,24.0,77,0.00,,,0.00,Wunderground v.1.15,2013-11-26 16:23:00,
2013-11-26 10:28:00,26.8,20.9,30.20,NNW,327,17.0,25.0,78,0.00,,,0.00,Wunderground v.1.15,2013-11-26 16:28:00,
2013-11-26 10:33:00,26.6,20.7,30.20,NNW,328,19.0,21.0,78,0.00,,,0.00,Wunderground v.1.15,2013-11-26 16:33:00,
2013-11-26 10:38:00,26.6,20.7,30.20,NNW,334,14.0,23.0,78,0.00,,,0.00,Wunderground v.1.15,2013-11-26 16:38:00,
2013-11-26 10:43:00,26.2,20.0,30.20,NNW,344,19.0,21.0,77,0.00,,,0.00,Wunderground v.1.15,2013-11-26 16:43:00,
2013-11-26 10:48:00,25.7,19.2,30.21,NNW,343,15.0,26.0,76,0.00,,,0.00,Wunderground v.1.15,2013-11-26 16:48:00,
2013-11-26 10:53:00,26.0,19.8,30.20,NNW,332,20.0,23.0,77,0.00,,,0.00,Wunderground v.1.15,2013-11-26 16:53:00,
2013-11-26 10:58:00,26.2,19.0,30.20,NNW,327,24.0,25.0,74,0.00,,,0.00,Wunderground v.1.15,2013-11-26 16:58:00,
2013-11-26 11:04:00,25.7,16.3,30.20,NNW,335,22.0,26.0,67,0.00,,,0.00,Wunderground v.1.15,2013-11-26 17:04:00,
2013-11-26 11:09:00,25.3,15.5,30.20,NNW,327,26.0,27.0,66,0.00,,,0.00,Wunderground v.1.15,2013-11-26 17:09:00,
2013-11-26 11:14:00,25.2,16.1,30.21,NNW,333,22.0,24.0,68,0.00,,,0.00,Wunderground v.1.15,2013-11-26 17:14:00,
2013-11-26 11:19:00,25.4,16.6,30.21,NNW,338,21.0,29.0,69,0.00,,,0.00,Wunderground v.1.15,2013-11-26 17:19:00,
2013-11-26 11:24:00,25.5,16.4,30.21,North,350,17.0,25.0,68,0.00,,,0.00,Wunderground v.1.15,2013-11-26 17:24:00,
2013-11-26 11:29:00,25.8,18.3,30.21,NNW,336,22.0,26.0,73,0.00,,,0.00,Wunderground v.1.15,2013-11-26 17:29:00,
2013-11-26 11:34:00,25.6,17.2,30.21,NNW,332,16.0,25.0,70,0.00,,,0.00,Wunderground v.1.15,2013-11-26 17:34:00,
2013-11-26 11:39:00,25.6,16.8,30.20,NW,326,23.0,26.0,69,0.00,,,0.00,Wunderground v.1.15,2013-11-26 17:39:00,
2013-11-26 11:44:00,25.9,18.4,30.21,NNW,330,15.0,23.0,73,0.00,,,0.00,Wunderground v.1.15,2013-11-26 17:44:00,
2013-11-26 11:49:00,26.0,18.8,30.21,NW,326,20.0,26.0,74,0.00,,,0.00,Wunderground v.1.15,2013-11-26 17:49:00,
2013-11-26 11:54:00,25.6,17.8,30.21,NW,305,24.0,26.0,72,0.00,,,0.00,Wunderground v.1.15,2013-11-26 17:54:00,
2013-11-26 11:59:00,25.5,17.4,30.21,NNW,330,23.0,26.0,71,0.00,,,0.00,Wunderground v.1.15,2013-11-26 17:59:00,
2013-11-26 12:13:00,25.3,14.8,30.20,NNW,346,24.0,24.0,64,0.00,,,0.00,Wunderground v.1.15,2013-11-26 18:13:00,
2013-11-26 12:18:00,25.0,14.5,30.19,NW,322,21.0,30.0,64,0.00,,,0.00,Wunderground v.1.15,2013-11-26 18:18:00,
2013-11-26 12:23:00,25.1,15.3,30.19,NNW,333,24.0,24.0,66,0.00,,,0.00,Wunderground v.1.15,2013-11-26 18:23:00,
2013-11-26 12:28:00,24.9,14.8,30.19,NW,315,19.0,26.0,65,0.00,,,0.00,Wunderground v.1.15,2013-11-26 18:28:00,
2013-11-26 12:33:00,25.0,15.9,30.19,NW,320,19.0,27.0,68,0.00,,,0.00,Wunderground v.1.15,2013-11-26 18:33:00,
2013-11-26 12:38:00,25.3,15.9,30.19,NNW,328,24.0,27.0,67,0.00,,,0.00,Wunderground v.1.15,2013-11-26 18:38:00,
2013-11-26 12:43:00,25.0,14.2,30.20,NW,319,20.0,27.0,63,0.00,,,0.00,Wunderground v.1.15,2013-11-26 18:43:00,
2013-11-26 12:49:00,25.0,14.5,30.20,NW,323,21.0,27.0,64,0.00,,,0.00,Wunderground v.1.15,2013-11-26 18:49:00,
2013-11-26 12:54:00,25.2,15.4,30.20,NNW,336,19.0,21.0,66,0.00,,,0.00,Wunderground v.1.15,2013-11-26 18:54:00,
2013-11-26 13:03:00,25.2,13.6,30.21,North,351,23.0,23.0,61,0.00,,,0.00,Wunderground v.1.15,2013-11-26 19:03:00,
2013-11-26 13:08:00,25.0,14.5,30.20,NNW,331,23.0,26.0,64,0.00,,,0.00,Wunderground v.1.15,2013-11-26 19:08:00,
2013-11-26 13:13:00,25.0,14.5,30.20,NNW,346,16.0,21.0,64,0.00,,,0.00,Wunderground v.1.15,2013-11-26 19:13:00,
2013-11-26 13:18:00,24.9,13.7,30.19,North,355,32.0,32.0,62,0.00,,,0.00,Wunderground v.1.15,2013-11-26 19:18:00,
2013-11-26 13:23:00,24.8,13.6,30.20,NNW,333,25.0,25.0,62,0.00,,,0.00,Wunderground v.1.15,2013-11-26 19:23:00,
2013-11-26 13:28:00,24.9,14.1,30.20,NNW,332,26.0,29.0,63,0.00,,,0.00,Wunderground v.1.15,2013-11-26 19:28:00,
2013-11-26 13:33:00,24.9,13.7,30.20,NNW,329,23.0,26.0,62,0.00,,,0.00,Wunderground v.1.15,2013-11-26 19:33:00,
2013-11-26 13:38:00,25.0,14.2,30.20,NNW,331,22.0,26.0,63,0.00,,,0.00,Wunderground v.1.15,2013-11-26 19:38:00,
2013-11-26 13:43:00,25.0,14.2,30.21,NNW,333,18.0,27.0,63,0.00,,,0.00,Wunderground v.1.15,2013-11-26 19:43:00,
2013-11-26 13:48:00,24.9,14.1,30.21,NNW,327,23.0,28.0,63,0.00,,,0.00,Wunderground v.1.15,2013-11-26 19:48:00,
2013-11-26 13:54:00,25.0,13.8,30.21,NW,325,16.0,21.0,62,0.00,,,0.00,Wunderground v.1.15,2013-11-26 19:54:00,
2013-11-26 13:59:00,24.9,13.7,30.21,NNW,329,23.0,27.0,62,0.00,,,0.00,Wunderground v.1.15,2013-11-26 19:59:00,
2013-11-26 14:04:00,24.9,14.1,30.22,NNW,337,17.0,23.0,63,0.00,,,0.00,Wunderground v.1.15,2013-11-26 20:04:00,
2013-11-26 14:09:00,24.9,13.0,30.21,NNW,335,20.0,23.0,60,0.00,,,0.00,Wunderground v.1.15,2013-11-26 20:09:00,
2013-11-26 14:14:00,24.9,13.7,30.22,NNW,328,17.0,25.0,62,0.00,,,0.00,Wunderground v.1.15,2013-11-26 20:14:00,
2013-11-26 14:19:00,24.8,13.2,30.22,NNW,335,25.0,25.0,61,0.00,,,0.00,Wunderground v.1.15,2013-11-26 20:19:00,
2013-11-26 14:24:00,24.7,13.9,30.21,NNW,331,17.0,25.0,63,0.00,,,0.00,Wunderground v.1.15,2013-11-26 20:24:00,
2013-11-26 14:29:00,24.7,14.2,30.21,NNW,340,21.0,28.0,64,0.00,,,0.00,Wunderground v.1.15,2013-11-26 20:29:00,
2013-11-26 14:34:00,24.7,13.9,30.22,NNW,342,19.0,27.0,63,0.00,,,0.00,Wunderground v.1.15,2013-11-26 20:34:00,
2013-11-26 14:39:00,24.6,13.1,30.21,North,355,19.0,28.0,61,0.00,,,0.00,Wunderground v.1.15,2013-11-26 20:39:00,
2013-11-26 14:44:00,24.6,13.4,30.21,NNW,327,15.0,24.0,62,0.00,,,0.00,Wunderground v.1.15,2013-11-26 20:44:00,
2013-11-26 14:49:00,24.6,13.4,30.22,NNW,346,22.0,24.0,62,0.00,,,0.00,Wunderground v.1.15,2013-11-26 20:49:00,
2013-11-26 14:54:00,24.7,13.9,30.22,NNW,345,22.0,23.0,63,0.00,,,0.00,Wunderground v.1.15,2013-11-26 20:54:00,
2013-11-26 14:59:00,24.5,13.7,30.22,NNW,330,18.0,26.0,63,0.00,,,0.00,Wunderground v.1.15,2013-11-26 20:59:00,
2013-11-26 15:05:00,24.3,13.9,30.22,NNW,327,21.0,25.0,64,0.00,,,0.00,Wunderground v.1.15,2013-11-26 21:05:00,
2013-11-26 15:10:00,23.7,13.6,30.22,NNW,329,20.0,28.0,65,0.00,,,0.00,Wunderground v.1.15,2013-11-26 21:10:00,
2013-11-26 15:15:00,23.6,13.5,30.22,NNW,338,26.0,27.0,65,0.00,,,0.00,Wunderground v.1.15,2013-11-26 21:15:00,
2013-11-26 15:20:00,23.9,14.2,30.23,NNW,330,22.0,28.0,66,0.00,,,0.00,Wunderground v.1.15,2013-11-26 21:20:00,
2013-11-26 15:25:00,24.0,15.0,30.23,NW,326,16.0,22.0,68,0.00,,,0.00,Wunderground v.1.15,2013-11-26 21:25:00,
2013-11-26 15:30:00,23.6,14.2,30.23,NW,325,21.0,24.0,67,0.00,,,0.00,Wunderground v.1.15,2013-11-26 21:30:00,
2013-11-26 15:35:00,23.4,14.7,30.23,NW,325,22.0,28.0,69,0.00,,,0.00,Wunderground v.1.15,2013-11-26 21:35:00,
2013-11-26 15:40:00,23.3,14.3,30.24,NNW,331,15.0,28.0,68,0.00,,,0.00,Wunderground v.1.15,2013-11-26 21:40:00,
2013-11-26 15:45:00,23.1,14.1,30.24,NW,317,21.0,23.0,68,0.00,,,0.00,Wunderground v.1.15,2013-11-26 21:45:00,
2013-11-26 15:50:00,23.1,13.8,30.24,NNW,331,14.0,24.0,67,0.00,,,0.00,Wunderground v.1.15,2013-11-26 21:50:00,
2013-11-26 15:55:00,23.0,14.3,30.24,NW,318,21.0,23.0,69,0.00,,,0.00,Wunderground v.1.15,2013-11-26 21:55:00,
2013-11-26 16:00:00,22.8,13.8,30.24,NNW,333,19.0,19.0,68,0.00,,,0.00,Wunderground v.1.15,2013-11-26 22:00:00,
2013-11-26 16:05:00,22.7,14.1,30.24,NNW,336,15.0,21.0,69,0.00,,,0.00,Wunderground v.1.15,2013-11-26 22:05:00,
2013-11-26 16:10:00,22.7,14.1,30.24,NNW,335,14.0,22.0,69,0.00,,,0.00,Wunderground v.1.15,2013-11-26 22:10:00,
2013-11-26 16:15:00,22.6,14.0,30.24,NNW,346,21.0,25.0,69,0.00,,,0.00,Wunderground v.1.15,2013-11-26 22:15:00,
2013-11-26 16:20:00,22.5,13.5,30.25,NNW,337,17.0,25.0,68,0.00,,,0.00,Wunderground v.1.15,2013-11-26 22:20:00,
2013-11-26 16:25:00,22.4,13.4,30.25,NNW,338,17.0,22.0,68,0.00,,,0.00,Wunderground v.1.15,2013-11-26 22:25:00,
2013-11-26 16:30:00,22.1,13.8,30.26,NNW,327,15.0,22.0,70,0.00,,,0.00,Wunderground v.1.15,2013-11-26 22:30:00,
2013-11-26 16:35:00,22.0,13.4,30.26,North,355,14.0,19.0,69,0.00,,,0.00,Wunderground v.1.15,2013-11-26 22:35:00,
2013-11-26 16:40:00,22.1,13.5,30.26,NNW,338,15.0,22.0,69,0.00,,,0.00,Wunderground v.1.15,2013-11-26 22:40:00,
2013-11-26 16:45:00,22.1,13.8,30.26,NNW,344,14.0,18.0,70,0.00,,,0.00,Wunderground v.1.15,2013-11-26 22:45:00,
2013-11-26 16:50:00,22.1,13.8,30.27,NNW,333,13.0,20.0,70,0.00,,,0.00,Wunderground v.1.15,2013-11-26 22:50:00,
2013-11-26 16:55:00,22.0,13.7,30.27,NNW,332,14.0,20.0,70,0.00,,,0.00,Wunderground v.1.15,2013-11-26 22:55:00,
2013-11-26 17:00:00,21.9,13.6,30.27,NNW,327,11.0,21.0,70,0.00,,,0.00,Wunderground v.1.15,2013-11-26 23:00:00,
2013-11-26 17:05:00,22.0,14.0,30.27,NNW,338,15.0,21.0,71,0.00,,,0.00,Wunderground v.1.15,2013-11-26 23:05:00,
2013-11-26 17:10:00,22.0,14.0,30.27,NNW,344,17.0,21.0,71,0.00,,,0.00,Wunderground v.1.15,2013-11-26 23:10:00,
2013-11-26 17:15:00,21.9,13.9,30.27,NNW,340,17.0,21.0,71,0.00,,,0.00,Wunderground v.1.15,2013-11-26 23:15:00,
2013-11-26 17:20:00,21.8,13.8,30.27,NNW,342,21.0,24.0,71,0.00,,,0.00,Wunderground v.1.15,2013-11-26 23:20:00,
2013-11-26 17:25:00,21.7,13.7,30.27,NNW,330,13.0,18.0,71,0.00,,,0.00,Wunderground v.1.15,2013-11-26 23:25:00,
2013-11-26 17:30:00,21.6,13.3,30.27,North,350,17.0,24.0,70,0.00,,,0.00,Wunderground v.1.15,2013-11-26 23:30:00,
2013-11-26 17:35:00,21.6,12.7,30.27,NNW,327,15.0,25.0,68,0.00,,,0.00,Wunderground v.1.15,2013-11-26 23:35:00,
2013-11-26 17:40:00,21.5,13.2,30.27,NNW,336,15.0,25.0,70,0.00,,,0.00,Wunderground v.1.15,2013-11-26 23:40:00,
2013-11-26 17:45:00,21.2,13.3,30.28,NNW,344,18.0,18.0,71,0.00,,,0.00,Wunderground v.1.15,2013-11-26 23:45:00,
2013-11-26 17:50:00,21.2,12.6,30.28,NNW,345,17.0,21.0,69,0.00,,,0.00,Wunderground v.1.15,2013-11-26 23:50:00,
2013-11-26 17:55:00,21.2,12.9,30.28,NNW,336,17.0,19.0,70,0.00,,,0.00,Wunderground v.1.15,2013-11-26 23:55:00,
2013-11-26 18:00:00,21.2,13.3,30.28,NNW,332,12.0,16.0,71,0.00,,,0.00,Wunderground v.1.15,2013-11-27 00:00:00,
2013-11-26 18:05:00,20.9,13.6,30.28,NNW,335,11.0,16.0,73,0.00,,,0.00,Wunderground v.1.15,2013-11-27 00:05:00,
2013-11-26 18:10:00,20.8,13.5,30.28,NNW,333,13.0,16.0,73,0.00,,,0.00,Wunderground v.1.15,2013-11-27 00:10:00,
2013-11-26 18:15:00,20.6,13.3,30.28,NNW,330,16.0,18.0,73,0.00,,,0.00,Wunderground v.1.15,2013-11-27 00:15:00,
2013-11-26 18:20:00,20.5,12.9,30.28,NW,319,14.0,19.0,72,0.00,,,0.00,Wunderground v.1.15,2013-11-27 00:20:00,
2013-11-26 18:25:00,20.5,12.3,30.28,NW,324,16.0,23.0,70,0.00,,,0.00,Wunderground v.1.15,2013-11-27 00:25:00,
2013-11-26 18:30:00,20.3,12.4,30.28,NNW,337,16.0,23.0,71,0.00,,,0.00,Wunderground v.1.15,2013-11-27 00:30:00,
2013-11-26 18:35:00,20.1,12.2,30.28,NNW,339,17.0,21.0,71,0.00,,,0.00,Wunderground v.1.15,2013-11-27 00:35:00,
2013-11-26 18:40:00,19.9,12.0,30.28,NNW,345,14.0,21.0,71,0.00,,,0.00,Wunderground v.1.15,2013-11-27 00:40:00,
2013-11-26 18:45:00,19.7,11.8,30.29,NNW,338,12.0,17.0,71,0.00,,,0.00,Wunderground v.1.15,2013-11-27 00:45:00,
2013-11-26 18:50:00,19.5,11.6,30.29,NNW,343,13.0,17.0,71,0.00,,,0.00,Wunderground v.1.15,2013-11-27 00:50:00,
2013-11-26 18:56:00,19.3,11.7,30.29,NNW,333,14.0,14.0,72,0.00,,,0.00,Wunderground v.1.15,2013-11-27 00:56:00,
2013-11-26 19:01:00,19.1,11.6,30.29,NNW,339,13.0,15.0,72,0.00,,,0.00,Wunderground v.1.15,2013-11-27 01:01:00,
2013-11-26 19:06:00,19.0,11.5,30.30,NNW,333,12.0,16.0,72,0.00,,,0.00,Wunderground v.1.15,2013-11-27 01:06:00,
2013-11-26 19:12:00,18.7,11.5,30.30,NNW,332,12.0,12.0,73,0.00,,,0.00,Wunderground v.1.15,2013-11-27 01:12:00,
2013-11-26 19:17:00,18.5,11.3,30.30,NNW,337,12.0,15.0,73,0.00,,,0.00,Wunderground v.1.15,2013-11-27 01:17:00,
2013-11-26 19:22:00,18.2,11.0,30.30,NNW,335,10.0,11.0,73,0.00,,,0.00,Wunderground v.1.15,2013-11-27 01:22:00,
2013-11-26 19:28:00,17.7,10.8,30.30,NNW,343,8.0,11.0,74,0.00,,,0.00,Wunderground v.1.15,2013-11-27 01:28:00,
2013-11-26 19:33:00,17.2,10.6,30.31,NNW,336,10.0,10.0,75,0.00,,,0.00,Wunderground v.1.15,2013-11-27 01:33:00,
2013-11-26 19:38:00,17.0,10.7,30.31,NNW,331,9.0,11.0,76,0.00,,,0.00,Wunderground v.1.15,2013-11-27 01:38:00,
2013-11-26 19:43:00,16.5,10.3,30.31,NNW,338,8.0,9.0,76,0.00,,,0.00,Wunderground v.1.15,2013-11-27 01:43:00,
2013-11-26 19:48:00,16.1,10.2,30.31,NNW,342,9.0,10.0,77,0.00,,,0.00,Wunderground v.1.15,2013-11-27 01:48:00,
2013-11-26 19:53:00,15.8,10.2,30.31,NNW,341,8.0,9.0,78,0.00,,,0.00,Wunderground v.1.15,2013-11-27 01:53:00,
2013-11-26 19:58:00,15.8,10.2,30.31,NNW,346,8.0,11.0,78,0.00,,,0.00,Wunderground v.1.15,2013-11-27 01:58:00,
2013-11-26 20:03:00,15.6,10.0,30.31,NNW,341,7.0,9.0,78,0.00,,,0.00,Wunderground v.1.15,2013-11-27 02:03:00,
2013-11-26 20:08:00,15.4,9.8,30.31,NNW,333,7.0,10.0,78,0.00,,,0.00,Wunderground v.1.15,2013-11-27 02:08:00,
2013-11-26 20:13:00,15.3,9.7,30.31,NNW,344,6.0,9.0,78,0.00,,,0.00,Wunderground v.1.15,2013-11-27 02:13:00,
2013-11-26 20:18:00,15.0,9.7,30.32,NNW,334,8.0,9.0,79,0.00,,,0.00,Wunderground v.1.15,2013-11-27 02:18:00,
2013-11-26 20:23:00,14.9,9.6,30.31,NW,326,10.0,10.0,79,0.00,,,0.00,Wunderground v.1.15,2013-11-27 02:23:00,
2013-11-26 20:28:00,14.9,9.6,30.31,NNW,339,7.0,10.0,79,0.00,,,0.00,Wunderground v.1.15,2013-11-27 02:28:00,
2013-11-26 20:33:00,14.8,9.5,30.31,NNW,333,6.0,8.0,79,0.00,,,0.00,Wunderground v.1.15,2013-11-27 02:33:00,
2013-11-26 20:38:00,14.8,9.5,30.31,NNW,328,7.0,10.0,79,0.00,,,0.00,Wunderground v.1.15,2013-11-27 02:38:00,
2013-11-26 20:43:00,14.6,9.3,30.31,NNW,334,7.0,7.0,79,0.00,,,0.00,Wunderground v.1.15,2013-11-27 02:43:00,
2013-11-26 20:48:00,14.4,9.1,30.32,NNW,338,6.0,8.0,79,0.00,,,0.00,Wunderground v.1.15,2013-11-27 02:48:00,
2013-11-26 20:53:00,14.1,8.8,30.32,NNW,329,6.0,7.0,79,0.00,,,0.00,Wunderground v.1.15,2013-11-27 02:53:00,
2013-11-26 20:58:00,14.0,9.0,30.32,NNW,335,7.0,8.0,80,0.00,,,0.00,Wunderground v.1.15,2013-11-27 02:58:00,
2013-11-26 21:03:00,13.9,8.9,30.32,NNW,340,8.0,8.0,80,0.00,,,0.00,Wunderground v.1.15,2013-11-27 03:03:00,
2013-11-26 21:08:00,13.7,8.7,30.32,NNW,342,6.0,8.0,80,0.00,,,0.00,Wunderground v.1.15,2013-11-27 03:08:00,
2013-11-26 21:13:00,13.4,8.4,30.32,NNW,338,5.0,5.0,80,0.00,,,0.00,Wunderground v.1.15,2013-11-27 03:13:00,
2013-11-26 21:18:00,13.1,8.1,30.33,NNW,329,5.0,5.0,80,0.00,,,0.00,Wunderground v.1.15,2013-11-27 03:18:00,
2013-11-26 21:23:00,12.8,7.8,30.33,NNW,329,5.0,5.0,80,0.00,,,0.00,Wunderground v.1.15,2013-11-27 03:23:00,
2013-11-26 21:28:00,12.5,7.5,30.33,NNW,334,5.0,7.0,80,0.00,,,0.00,Wunderground v.1.15,2013-11-27 03:28:00,
2013-11-26 21:33:00,12.3,7.3,30.33,NNW,329,5.0,5.0,80,0.00,,,0.00,Wunderground v.1.15,2013-11-27 03:33:00,
2013-11-26 21:38:00,12.3,7.6,30.33,NNW,336,7.0,7.0,81,0.00,,,0.00,Wunderground v.1.15,2013-11-27 03:38:00,
2013-11-26 21:43:00,12.4,7.7,30.33,NNW,340,5.0,6.0,81,0.00,,,0.00,Wunderground v.1.15,2013-11-27 03:43:00,
2013-11-26 21:48:00,12.5,7.8,30.33,NNW,343,5.0,8.0,81,0.00,,,0.00,Wunderground v.1.15,2013-11-27 03:48:00,
2013-11-26 21:53:00,12.6,7.9,30.33,NNW,342,5.0,6.0,81,0.00,,,0.00,Wunderground v.1.15,2013-11-27 03:53:00,
2013-11-26 21:58:00,12.5,7.5,30.33,NNW,340,4.0,6.0,80,0.00,,,0.00,Wunderground v.1.15,2013-11-27 03:58:00,
2013-11-26 22:03:00,12.4,7.4,30.33,NNW,331,4.0,5.0,80,0.00,,,0.00,Wunderground v.1.15,2013-11-27 04:03:00,
2013-11-26 22:08:00,12.1,7.1,30.33,NNW,331,4.0,5.0,80,0.00,,,0.00,Wunderground v.1.15,2013-11-27 04:08:00,
2013-11-26 22:13:00,11.8,6.8,30.33,NNW,336,5.0,5.0,80,0.00,,,0.00,Wunderground v.1.15,2013-11-27 04:13:00,
2013-11-26 22:18:00,11.5,6.8,30.33,NNW,342,5.0,6.0,81,0.00,,,0.00,Wunderground v.1.15,2013-11-27 04:18:00,
2013-11-26 22:23:00,11.4,6.7,30.33,NNW,336,5.0,5.0,81,0.00,,,0.00,Wunderground v.1.15,2013-11-27 04:23:00,
2013-11-26 22:28:00,11.4,6.7,30.33,NNW,339,5.0,8.0,81,0.00,,,0.00,Wunderground v.1.15,2013-11-27 04:28:00,
2013-11-26 22:33:00,11.4,6.7,30.33,NNW,338,6.0,6.0,81,0.00,,,0.00,Wunderground v.1.15,2013-11-27 04:33:00,
2013-11-26 22:38:00,11.4,7.0,30.33,NNW,338,5.0,6.0,82,0.00,,,0.00,Wunderground v.1.15,2013-11-27 04:38:00,
2013-11-26 22:43:00,11.4,6.7,30.33,NNW,334,3.0,5.0,81,0.00,,,0.00,Wunderground v.1.15,2013-11-27 04:43:00,
2013-11-26 22:48:00,11.2,6.5,30.34,NW,321,4.0,6.0,81,0.00,,,0.00,Wunderground v.1.15,2013-11-27 04:48:00,
2013-11-26 22:53:00,11.0,6.3,30.34,NW,325,3.0,4.0,81,0.00,,,0.00,Wunderground v.1.15,2013-11-27 04:53:00,
2013-11-26 22:58:00,10.7,6.0,30.34,NW,320,3.0,4.0,81,0.00,,,0.00,Wunderground v.1.15,2013-11-27 04:58:00,
2013-11-26 23:01:00,10.5,5.8,30.34,NW,319,4.0,4.0,81,0.00,,,0.00,Wunderground v.1.15,2013-11-27 05:01:00,
2013-11-26 23:03:00,10.2,5.3,30.34,NW,322,4.0,4.0,80,0.00,,,0.00,Wunderground v.1.15,2013-11-27 05:03:00,
2013-11-26 23:04:00,10.1,5.2,30.34,NW,322,4.0,5.0,80,0.00,,,0.00,Wunderground v.1.15,2013-11-27 05:04:00,
2013-11-26 23:09:00,9.6,4.9,30.34,NNW,333,3.0,4.0,81,0.00,,,0.00,Wunderground v.1.15,2013-11-27 05:09:00,
2013-11-26 23:14:00,9.4,5.0,30.34,NW,326,4.0,6.0,82,0.00,,,0.00,Wunderground v.1.15,2013-11-27 05:14:00,
2013-11-26 23:19:00,9.4,5.3,30.34,NW,321,5.0,6.0,83,0.00,,,0.00,Wunderground v.1.15,2013-11-27 05:19:00,
2013-11-26 23:24:00,9.4,5.3,30.34,NNW,327,4.0,5.0,83,0.00,,,0.00,Wunderground v.1.15,2013-11-27 05:24:00,
2013-11-26 23:29:00,9.4,5.3,30.34,NW,319,4.0,5.0,83,0.00,,,0.00,Wunderground v.1.15,2013-11-27 05:29:00,
2013-11-26 23:34:00,9.4,5.3,30.34,NW,324,5.0,5.0,83,0.00,,,0.00,Wunderground v.1.15,2013-11-27 05:34:00,
2013-11-26 23:39:00,9.5,5.4,30.34,NW,321,2.0,5.0,83,0.00,,,0.00,Wunderground v.1.15,2013-11-27 05:39:00,
2013-11-26 23:44:00,9.3,4.9,30.34,NW,304,3.0,4.0,82,0.00,,,0.00,Wunderground v.1.15,2013-11-27 05:44:00,
2013-11-26 23:49:00,9.0,4.6,30.34,NW,311,3.0,4.0,82,0.00,,,0.00,Wunderground v.1.15,2013-11-27 05:49:00,
2013-11-26 23:54:00,8.8,4.7,30.34,NW,309,3.0,4.0,83,0.00,,,0.00,Wunderground v.1.15,2013-11-27 05:54:00,